^^
B2 Weather Station Historical Data
 
Daily Summary for February 26, 2020 Units:  English    Metric   Both
Daily Weekly Monthly Yearly Custom
  Current: High: Low: Average:
Temperature: 25.7 °F 32.4 °F 25.6 °F 29.6 °F
Dew Point: 18.9 °F 31.4 °F 18.2 °F 26.7 °F
Humidity: 75% 96% 73% 89%
Wind Speed: 16.1mph 19.6mph 5.8mph 13mph
Wind Gust: 6.4mph 14.5mph - -
WindNNW - - West
Pressure: 30.16 in 30.16 in 30.01 in -
Precipitation: 0 in      
Historical Graphs
 
 
Tabular Data for February 26, 2020
Time Temperature Dew Point Pressure Wind Wind Speed Wind Gust Humidity Rainfall Rate (Hourly) solar
00:00 32.4 °F 31.4 °F 30.05 in North 12.7 mph 9.3 mph 96% 0.01 in 0.00 W/m2
00:05 32.4 °F 31.4 °F 30.05 in North 11.5 mph 8.2 mph 96% 0.01 in 0.00 W/m2
00:10 32.4 °F 31.4 °F 30.05 in NNE 12 mph 10.1 mph 96% 0.01 in 0.00 W/m2
00:15 32.4 °F 31.4 °F 30.05 in North 11.5 mph 9.6 mph 96% 0.01 in 0.00 W/m2
00:20 32.4 °F 31.4 °F 30.05 in North 11.5 mph 8.5 mph 96% 0.01 in 0.00 W/m2
00:25 32.4 °F 31.4 °F 30.05 in NNE 15 mph 9.3 mph 96% 0.01 in 0.00 W/m2
00:30 32.4 °F 31.4 °F 30.05 in NNE 11.5 mph 9.5 mph 96% 0.01 in 0.00 W/m2
00:35 32.4 °F 31.4 °F 30.04 in North 12.7 mph 9.1 mph 96% 0.01 in 0.00 W/m2
00:40 32.4 °F 31.4 °F 30.04 in North 11.5 mph 8 mph 96% 0.01 in 0.00 W/m2
00:45 32.3 °F 31.3 °F 30.04 in NNE 13.8 mph 9.2 mph 96% 0 in 0.00 W/m2
00:50 32.3 °F 31.3 °F 30.04 in North 11.5 mph 9.5 mph 96% 0 in 0.00 W/m2
00:55 32.3 °F 31.3 °F 30.04 in NNE 11.5 mph 9.3 mph 96% 0 in 0.00 W/m2
01:00 32.3 °F 31.3 °F 30.04 in NNE 11.5 mph 7.3 mph 96% 0 in 0.00 W/m2
01:05 32.3 °F 31.3 °F 30.04 in North 11.5 mph 8.7 mph 96% 0 in 0.00 W/m2
01:10 32.3 °F 31.3 °F 30.04 in North 12.7 mph 8.6 mph 96% 0 in 0.00 W/m2
01:15 32.3 °F 31.3 °F 30.04 in NNE 15 mph 10.4 mph 96% 0 in 0.00 W/m2
01:20 32.2 °F 31.2 °F 30.04 in North 12.7 mph 10 mph 96% 0 in 0.00 W/m2
01:25 32.2 °F 31.2 °F 30.04 in North 11.5 mph 8.5 mph 96% 0 in 0.00 W/m2
01:30 32.2 °F 31.2 °F 30.04 in NNE 13.8 mph 10.8 mph 96% 0 in 0.00 W/m2
01:35 32.1 °F 31.1 °F 30.04 in North 12.7 mph 9.5 mph 96% 0 in 0.00 W/m2
01:40 32.1 °F 31.1 °F 30.04 in NNE 13.8 mph 9.9 mph 96% 0 in 0.00 W/m2
01:45 32.1 °F 31.1 °F 30.04 in North 14 mph 9.6 mph 96% 0 in 0.00 W/m2
01:50 32 °F 31 °F 30.04 in NNE 11.5 mph 8.7 mph 96% 0 in 0.00 W/m2
01:55 32 °F 31 °F 30.04 in NNE 18.4 mph 12.9 mph 96% 0 in 0.00 W/m2
02:00 32 °F 31 °F 30.04 in North 13.8 mph 10.2 mph 96% 0 in 0.00 W/m2
02:05 32 °F 31 °F 30.04 in NNE 11.5 mph 8.3 mph 96% 0 in 0.00 W/m2
02:10 32 °F 31 °F 30.04 in North 13 mph 8.7 mph 96% 0 in 0.00 W/m2
02:15 31.9 °F 30.9 °F 30.04 in North 17.3 mph 11.1 mph 96% 0 in 0.00 W/m2
02:20 31.9 °F 30.9 °F 30.03 in North 13.8 mph 10.8 mph 96% 0 in 0.00 W/m2
02:25 31.8 °F 30.8 °F 30.03 in North 14 mph 10.2 mph 96% 0 in 0.00 W/m2
02:30 31.8 °F 30.8 °F 30.03 in North 11.5 mph 8 mph 96% 0 in 0.00 W/m2
02:35 31.7 °F 30.7 °F 30.03 in NNE 11.5 mph 9.9 mph 96% 0 in 0.00 W/m2
02:40 31.7 °F 30.7 °F 30.03 in NNE 13.8 mph 9.6 mph 96% 0 in 0.00 W/m2
02:45 31.6 °F 30.6 °F 30.02 in NNE 13.8 mph 10.5 mph 96% 0 in 0.00 W/m2
02:50 31.6 °F 30.6 °F 30.02 in North 12.7 mph 9.1 mph 96% 0 in 0.00 W/m2
02:55 31.6 °F 30.6 °F 30.01 in North 13.8 mph 10.6 mph 96% 0 in 0.00 W/m2
03:00 31.6 °F 30.6 °F 30.01 in North 17.3 mph 11.5 mph 96% 0 in 0.00 W/m2
03:05 31.5 °F 30.5 °F 30.01 in NNE 12.7 mph 9.5 mph 96% 0 in 0.00 W/m2
03:10 31.6 °F 30.6 °F 30.02 in North 16 mph 10.4 mph 96% 0 in 0.00 W/m2
03:15 31.5 °F 30.5 °F 30.02 in NE 11.5 mph 7.5 mph 96% 0 in 0.00 W/m2
03:20 31.6 °F 30.6 °F 30.02 in NNE 11.5 mph 7.9 mph 96% 0 in 0.00 W/m2
03:25 31.5 °F 30.5 °F 30.02 in NNE 12 mph 8.1 mph 96% 0 in 0.00 W/m2
03:30 31.5 °F 30.5 °F 30.02 in NE 11.5 mph 8.1 mph 96% 0 in 0.00 W/m2
03:35 31.5 °F 30.5 °F 30.03 in NNE 10.4 mph 8.1 mph 96% 0 in 0.00 W/m2
03:40 31.5 °F 30.5 °F 30.03 in NNE 11.5 mph 8.1 mph 96% 0 in 0.00 W/m2
03:45 31.4 °F 30.4 °F 30.03 in NNE 12.7 mph 10.8 mph 96% 0 in 0.00 W/m2
03:50 31.4 °F 30.4 °F 30.02 in NNE 10.4 mph 7.2 mph 96% 0 in 0.00 W/m2
03:55 31.3 °F 30.3 °F 30.02 in North 11.5 mph 9.5 mph 96% 0 in 0.00 W/m2
04:00 31.4 °F 30.1 °F 30.02 in North 16 mph 9.9 mph 95% 0 in 0.00 W/m2
04:05 31.3 °F 30 °F 30.02 in NE 13.8 mph 11.5 mph 95% 0 in 0.00 W/m2
04:10 31.2 °F 29.9 °F 30.02 in North 16.1 mph 11.4 mph 95% 0 in 0.00 W/m2
04:15 31.2 °F 29.9 °F 30.03 in North 11.5 mph 8.7 mph 95% 0 in 0.00 W/m2
04:20 31.1 °F 29.8 °F 30.03 in North 12.7 mph 10.3 mph 95% 0 in 0.00 W/m2
04:25 31.1 °F 29.8 °F 30.03 in North 11.5 mph 8.2 mph 95% 0 in 0.00 W/m2
04:30 31.1 °F 29.8 °F 30.03 in North 14 mph 10 mph 95% 0 in 0.00 W/m2
04:35 31 °F 29.7 °F 30.03 in North 15 mph 9.9 mph 95% 0 in 0.00 W/m2
04:40 31 °F 29.7 °F 30.04 in North 16.1 mph 9.9 mph 95% 0 in 0.00 W/m2
04:45 30.9 °F 29.6 °F 30.04 in North 12.7 mph 10 mph 95% 0 in 0.00 W/m2
04:50 30.8 °F 29.5 °F 30.04 in NNE 13.8 mph 9.2 mph 95% 0 in 0.00 W/m2
04:55 30.7 °F 29.4 °F 30.03 in North 11.5 mph 9.2 mph 95% 0 in 0.00 W/m2
05:00 30.7 °F 29.4 °F 30.04 in North 15 mph 12.1 mph 95% 0 in 0.00 W/m2
05:05 30.6 °F 29.3 °F 30.04 in North 11.5 mph 8.5 mph 95% 0 in 0.00 W/m2
05:10 30.6 °F 29.3 °F 30.05 in North 11.5 mph 10.2 mph 95% 0 in 0.00 W/m2
05:15 30.5 °F 29.2 °F 30.05 in North 11.5 mph 9 mph 95% 0 in 0.00 W/m2
05:20 30.5 °F 29.2 °F 30.05 in North 11.5 mph 8.8 mph 95% 0 in 0.00 W/m2
05:25 30.4 °F 29.1 °F 30.05 in North 13.8 mph 10.5 mph 95% 0 in 0.00 W/m2
05:30 30.3 °F 29 °F 30.05 in North 11.5 mph 9.1 mph 95% 0 in 0.00 W/m2
05:35 30.3 °F 29 °F 30.05 in North 9.2 mph 7.4 mph 95% 0 in 0.00 W/m2
05:40 30.3 °F 29 °F 30.05 in North 9.2 mph 6.2 mph 95% 0 in 0.00 W/m2
05:45 30.3 °F 29 °F 30.05 in North 11.5 mph 10 mph 95% 0 in 0.00 W/m2
05:50 30.3 °F 29 °F 30.05 in NNW 14 mph 9.5 mph 95% 0 in 0.00 W/m2
05:55 30.3 °F 29 °F 30.05 in North 13 mph 12.7 mph 95% 0 in 0.00 W/m2
06:00 30.2 °F 28.9 °F 30.05 in North 10.4 mph 7.4 mph 95% 0 in 0.00 W/m2
06:05 30.2 °F 28.9 °F 30.05 in North 12 mph 8.4 mph 95% 0 in 0.00 W/m2
06:10 30.2 °F 28.9 °F 30.05 in North 13.8 mph 9.8 mph 95% 0 in 0.00 W/m2
06:15 30.2 °F 28.9 °F 30.05 in NNW 11.5 mph 8 mph 95% 0 in 0.00 W/m2
06:20 30.1 °F 28.8 °F 30.05 in NNE 11.5 mph 7.7 mph 95% 0 in 0.00 W/m2
06:25 30.1 °F 28.8 °F 30.05 in North 11.5 mph 8.4 mph 95% 0 in 0.00 W/m2
06:30 30 °F 28.7 °F 30.05 in NNW 12.7 mph 9.6 mph 95% 0 in 0.00 W/m2
06:35 29.9 °F 28.6 °F 30.05 in NNW 16.1 mph 11.6 mph 95% 0 in 0.00 W/m2
06:40 29.9 °F 28.6 °F 30.05 in North 10.4 mph 8.4 mph 95% 0 in 0.00 W/m2
06:45 29.8 °F 28.5 °F 30.05 in NNW 12 mph 9.4 mph 95% 0 in 7.00 W/m2
06:50 29.7 °F 28.4 °F 30.05 in North 11.5 mph 9.1 mph 95% 0 in 11.00 W/m2
06:55 29.6 °F 28.3 °F 30.06 in North 11.5 mph 9.5 mph 95% 0 in 16.00 W/m2
07:00 29.6 °F 28.3 °F 30.06 in North 9.2 mph 7.8 mph 95% 0 in 19.00 W/m2
07:05 29.5 °F 28.2 °F 30.06 in North 12.7 mph 9.9 mph 95% 0 in 21.00 W/m2
07:10 29.5 °F 28.2 °F 30.06 in NNW 11.5 mph 8.3 mph 95% 0 in 21.00 W/m2
07:15 29.6 °F 28.3 °F 30.06 in North 11.5 mph 7.8 mph 95% 0 in 23.00 W/m2
07:20 29.5 °F 28.2 °F 30.06 in NNE 9.2 mph 6.6 mph 95% 0 in 23.00 W/m2
07:25 29.5 °F 28.2 °F 30.05 in NNW 10.4 mph 7.5 mph 95% 0 in 26.00 W/m2
07:30 29.5 °F 28.2 °F 30.05 in North 11.5 mph 9.5 mph 95% 0 in 30.00 W/m2
07:35 29.4 °F 28.1 °F 30.05 in North 11.5 mph 7.6 mph 95% 0 in 35.00 W/m2
07:40 29.4 °F 28.1 °F 30.06 in North 11.5 mph 7.1 mph 95% 0 in 40.00 W/m2
07:45 29.5 °F 28.2 °F 30.06 in North 9.2 mph 7.1 mph 95% 0 in 44.00 W/m2
07:50 29.5 °F 28.2 °F 30.06 in North 9.2 mph 6.6 mph 95% 0 in 44.00 W/m2
07:55 29.5 °F 28.2 °F 30.06 in North 11.5 mph 8.6 mph 95% 0 in 44.00 W/m2
08:00 29.5 °F 28.2 °F 30.06 in North 11.5 mph 8.3 mph 95% 0 in 33.00 W/m2
08:05 29.4 °F 28.1 °F 30.06 in North 12.7 mph 10.4 mph 95% 0 in 46.00 W/m2
08:10 29.1 °F 27.8 °F 30.05 in North 18.4 mph 13.9 mph 95% 0 in 56.00 W/m2
08:15 29 °F 27.7 °F 30.05 in North 15 mph 11.7 mph 95% 0 in 65.00 W/m2
08:20 29 °F 27.7 °F 30.05 in NNW 10.4 mph 7.8 mph 95% 0 in 77.00 W/m2
08:25 29 °F 27.7 °F 30.05 in North 17.3 mph 10.5 mph 95% 0 in 86.00 W/m2
08:30 29 °F 27.7 °F 30.05 in NW 11.5 mph 8.4 mph 95% 0 in 83.00 W/m2
08:35 28.7 °F 27.4 °F 30.05 in NNW 15 mph 11 mph 95% 0 in 84.00 W/m2
08:40 28.5 °F 27.3 °F 30.05 in NNW 15 mph 10.4 mph 95% 0 in 86.00 W/m2
08:45 28.4 °F 26.9 °F 30.05 in NNW 13.8 mph 10 mph 94% 0 in 86.00 W/m2
08:50 28.2 °F 26.7 °F 30.05 in NNW 16.1 mph 11.6 mph 94% 0 in 107.00 W/m2
08:55 28.1 °F 26.6 °F 30.05 in NNW 11.5 mph 9.9 mph 94% 0 in 120.00 W/m2
09:00 28.1 °F 26.6 °F 30.05 in North 13 mph 9.8 mph 94% 0 in 125.00 W/m2
09:05 28.1 °F 26.6 °F 30.05 in NNW 13.8 mph 9.9 mph 94% 0 in 125.00 W/m2
09:10 28.1 °F 26.6 °F 30.05 in North 11.5 mph 9.5 mph 94% 0 in 134.00 W/m2
09:15 28 °F 26.5 °F 30.05 in NNW 15 mph 11 mph 94% 0 in 132.00 W/m2
09:20 28 °F 26.5 °F 30.05 in NNW 15 mph 10.8 mph 94% 0 in 135.00 W/m2
09:25 28 °F 26.5 °F 30.05 in NNW 12.7 mph 11.3 mph 94% 0 in 139.00 W/m2
09:30 28.1 °F 26.6 °F 30.05 in North 13.8 mph 9.7 mph 94% 0 in 142.00 W/m2
09:35 28 °F 26.5 °F 30.05 in NNW 13.8 mph 11.5 mph 94% 0 in 142.00 W/m2
09:40 28 °F 26.2 °F 30.05 in NNW 14 mph 10.7 mph 93% 0 in 139.00 W/m2
09:45 28 °F 26.2 °F 30.05 in NW 17.3 mph 12 mph 93% 0 in 153.00 W/m2
09:50 27.9 °F 26.1 °F 30.05 in NNW 16.1 mph 11.8 mph 93% 0 in 146.00 W/m2
09:55 27.9 °F 26.1 °F 30.05 in NNW 13.8 mph 10.1 mph 93% 0 in 162.00 W/m2
10:00 28 °F 26.2 °F 30.05 in North 16.1 mph 11.2 mph 93% 0 in 174.00 W/m2
10:05 28 °F 26.2 °F 30.05 in NNW 18.4 mph 13.9 mph 93% 0 in 181.00 W/m2
10:10 28 °F 26.2 °F 30.05 in North 11.5 mph 9.3 mph 93% 0 in 186.00 W/m2
10:15 28.1 °F 26.3 °F 30.05 in NNW 11.5 mph 8.5 mph 93% 0 in 188.00 W/m2
10:20 28.1 °F 26.3 °F 30.06 in NW 12.7 mph 8.7 mph 93% 0 in 192.00 W/m2
10:25 28.1 °F 26.3 °F 30.06 in NNW 16.1 mph 10.9 mph 93% 0 in 186.00 W/m2
10:30 28.1 °F 26.1 °F 30.06 in NW 15 mph 9.8 mph 92% 0 in 190.00 W/m2
10:35 28.2 °F 26.2 °F 30.06 in NNW 15 mph 10.3 mph 92% 0 in 193.00 W/m2
10:40 28.2 °F 26.2 °F 30.06 in NNW 15 mph 10.9 mph 92% 0 in 190.00 W/m2
10:45 28.3 °F 26.3 °F 30.06 in North 15 mph 10.6 mph 92% 0 in 199.00 W/m2
10:50 28.3 °F 26.3 °F 30.06 in NNW 19.6 mph 13 mph 92% 0 in 199.00 W/m2
10:55 28.4 °F 26.1 °F 30.06 in North 15 mph 8.3 mph 91% 0 in 200.00 W/m2
11:00 28.5 °F 26.2 °F 30.06 in North 17 mph 10.5 mph 91% 0 in 195.00 W/m2
11:05 28.6 °F 26.3 °F 30.06 in North 15 mph 10.8 mph 91% 0 in 200.00 W/m2
11:10 28.7 °F 26.4 °F 30.06 in NNW 13 mph 8.8 mph 91% 0 in 206.00 W/m2
11:15 28.9 °F 26.6 °F 30.06 in NW 9.2 mph 7.8 mph 91% 0 in 211.00 W/m2
11:20 29 °F 26.4 °F 30.06 in NNW 11.5 mph 9.7 mph 90% 0 in 207.00 W/m2
11:25 29 °F 26.4 °F 30.06 in NNW 12.7 mph 9.6 mph 90% 0 in 206.00 W/m2
11:30 29.1 °F 26.5 °F 30.06 in NNW 12.7 mph 9.8 mph 90% 0 in 204.00 W/m2
11:35 29.2 °F 26.6 °F 30.06 in North 11.5 mph 7 mph 90% 0 in 216.00 W/m2
11:40 29.2 °F 26.6 °F 30.05 in North 12.7 mph 10.1 mph 90% 0 in 229.00 W/m2
11:45 29.3 °F 26.7 °F 30.05 in North 9.2 mph 5.8 mph 90% 0 in 236.00 W/m2
11:50 29.3 °F 26.7 °F 30.05 in NNW 13.8 mph 10.6 mph 90% 0 in 250.00 W/m2
11:55 29.4 °F 26.8 °F 30.05 in NNW 12.7 mph 8.1 mph 90% 0 in 258.00 W/m2
12:00 29.4 °F 26.6 °F 30.05 in NNW 14 mph 11.6 mph 89% 0 in 255.00 W/m2
12:05 29.3 °F 26.5 °F 30.05 in NNW 15 mph 9.6 mph 89% 0 in 269.00 W/m2
12:10 29.5 °F 26.9 °F 30.05 in NNW 9.2 mph 6.2 mph 90% 0 in 265.00 W/m2
12:15 29.4 °F 26.6 °F 30.05 in NNW 16.1 mph 12 mph 89% 0 in 267.00 W/m2
12:20 29.3 °F 26.2 °F 30.05 in North 15 mph 10.1 mph 88% 0 in 267.00 W/m2
12:25 29.4 °F 26.3 °F 30.05 in North 17.3 mph 14.3 mph 88% 0 in 274.00 W/m2
12:30 29.6 °F 26.5 °F 30.05 in North 16 mph 10.8 mph 88% 0 in 287.00 W/m2
12:35 29.8 °F 26.4 °F 30.04 in NNW 12 mph 8.8 mph 87% 0 in 311.00 W/m2
12:40 30 °F 26.6 °F 30.04 in North 13.8 mph 8.6 mph 87% 0 in 330.00 W/m2
12:45 30.2 °F 26.5 °F 30.04 in North 13.8 mph 9 mph 86% 0 in 341.00 W/m2
12:50 30.3 °F 26.3 °F 30.04 in North 13.8 mph 10.4 mph 85% 0 in 329.00 W/m2
12:55 30.5 °F 26.5 °F 30.04 in North 11.5 mph 9.2 mph 85% 0 in 332.00 W/m2
13:00 30.7 °F 27 °F 30.04 in North 13.8 mph 12.3 mph 86% 0 in 345.00 W/m2
13:05 30.7 °F 26.4 °F 30.04 in NNW 11.5 mph 8.1 mph 84% 0 in 262.00 W/m2
13:10 30.7 °F 26.4 °F 30.04 in North 12.7 mph 10.1 mph 84% 0 in 158.00 W/m2
13:15 30.7 °F 26.4 °F 30.04 in North 17.3 mph 10.4 mph 84% 0 in 135.00 W/m2
13:20 30.6 °F 26.3 °F 30.04 in North 19.6 mph 13.3 mph 84% 0 in 174.00 W/m2
13:25 30.6 °F 26.3 °F 30.04 in North 12.7 mph 9.6 mph 84% 0 in 190.00 W/m2
13:30 30.6 °F 26.3 °F 30.04 in North 17.3 mph 10.8 mph 84% 0 in 153.00 W/m2
13:35 30.3 °F 26 °F 30.04 in NNW 16.1 mph 11.9 mph 84% 0 in 167.00 W/m2
13:40 30.2 °F 25.9 °F 30.04 in NNW 19.6 mph 14.5 mph 84% 0 in 193.00 W/m2
13:45 30.2 °F 25.9 °F 30.04 in NNW 12.7 mph 8 mph 84% 0 in 197.00 W/m2
13:50 30.1 °F 26.1 °F 30.04 in NNW 16.1 mph 10 mph 85% 0 in 181.00 W/m2
13:55 30 °F 26.3 °F 30.04 in NNW 12.7 mph 9.8 mph 86% 0 in 185.00 W/m2
14:00 29.8 °F 26.1 °F 30.04 in NNW 15 mph 12 mph 86% 0 in 202.00 W/m2
14:05 29.7 °F 26 °F 30.04 in NNW 14 mph 10.1 mph 86% 0 in 192.00 W/m2
14:10 29.6 °F 26.2 °F 30.04 in NNW 11 mph 7 mph 87% 0 in 176.00 W/m2
14:15 29.6 °F 26.2 °F 30.05 in NNW 10.4 mph 6.8 mph 87% 0 in 162.00 W/m2
14:20 29.6 °F 26.2 °F 30.05 in NNW 12.7 mph 8.2 mph 87% 0 in 165.00 W/m2
14:25 29.6 °F 26.2 °F 30.05 in North 10.4 mph 6.9 mph 87% 0 in 174.00 W/m2
14:30 29.6 °F 26.2 °F 30.05 in NNW 13.8 mph 10.9 mph 87% 0 in 163.00 W/m2
14:35 29.7 °F 26.3 °F 30.05 in WNW 12.7 mph 7.3 mph 87% 0 in 179.00 W/m2
14:40 29.6 °F 25.9 °F 30.05 in North 11.5 mph 8.5 mph 86% 0 in 197.00 W/m2
14:45 29.6 °F 25.6 °F 30.05 in NW 12.7 mph 9.5 mph 85% 0 in 253.00 W/m2
14:50 29.7 °F 25.7 °F 30.05 in NNW 11.5 mph 8.9 mph 85% 0 in 258.00 W/m2
14:55 29.8 °F 25.6 °F 30.05 in NNW 13 mph 8.6 mph 84% 0 in 246.00 W/m2
15:00 29.9 °F 25.7 °F 30.05 in NNW 15 mph 10 mph 84% 0 in 227.00 W/m2
15:05 30 °F 25.8 °F 30.06 in WNW 10.4 mph 6.1 mph 84% 0 in 202.00 W/m2
15:10 30 °F 26 °F 30.06 in NNW 13.8 mph 7.5 mph 85% 0 in 181.00 W/m2
15:15 30 °F 26 °F 30.06 in NW 10.4 mph 6.7 mph 85% 0 in 165.00 W/m2
15:20 29.9 °F 25.9 °F 30.07 in NW 11.5 mph 8.2 mph 85% 0 in 141.00 W/m2
15:25 29.8 °F 26.1 °F 30.06 in NNW 10.4 mph 6.8 mph 86% 0 in 127.00 W/m2
15:30 29.8 °F 26.1 °F 30.07 in NW 9.2 mph 6.7 mph 86% 0 in 123.00 W/m2
15:35 29.7 °F 26 °F 30.07 in North 11.5 mph 7.1 mph 86% 0 in 83.00 W/m2
15:40 29.6 °F 25.9 °F 30.07 in NNW 12 mph 8.3 mph 86% 0 in 74.00 W/m2
15:45 29.6 °F 25.9 °F 30.07 in WNW 12 mph 6.3 mph 86% 0 in 90.00 W/m2
15:50 29.5 °F 25.5 °F 30.07 in WNW 13.8 mph 9.7 mph 85% 0 in 72.00 W/m2
15:55 29.5 °F 25.5 °F 30.08 in NW 10.4 mph 6.7 mph 85% 0 in 63.00 W/m2
16:00 29.6 °F 25.6 °F 30.08 in West 13.8 mph 8.8 mph 85% 0 in 70.00 W/m2
16:05 29.5 °F 25.3 °F 30.08 in NNW 11.5 mph 7.8 mph 84% 0 in 91.00 W/m2
16:10 29.6 °F 25.4 °F 30.08 in NNW 12.7 mph 8.4 mph 84% 0 in 113.00 W/m2
16:15 29.5 °F 25.3 °F 30.08 in NW 13.8 mph 8.4 mph 84% 0 in 105.00 W/m2
16:20 29.5 °F 25 °F 30.09 in NNE 11.5 mph 5.8 mph 83% 0 in 109.00 W/m2
16:25 29.4 °F 24.6 °F 30.09 in NNW 11.5 mph 7.6 mph 82% 0 in 109.00 W/m2
16:30 29.4 °F 24.6 °F 30.09 in NW 5.8 mph 4 mph 82% 0 in 113.00 W/m2
16:35 29.4 °F 24.6 °F 30.09 in WNW 10.4 mph 6.7 mph 82% 0 in 69.00 W/m2
16:40 29.3 °F 24.5 °F 30.09 in NNW 13.8 mph 9 mph 82% 0 in 53.00 W/m2
16:45 29.3 °F 24.2 °F 30.09 in NW 13.8 mph 8.2 mph 81% 0 in 30.00 W/m2
16:50 29.2 °F 23.8 °F 30.09 in NW 12.7 mph 8.7 mph 80% 0 in 33.00 W/m2
16:55 29 °F 23.6 °F 30.10 in NW 12.7 mph 10.2 mph 80% 0 in 32.00 W/m2
17:00 29 °F 23.6 °F 30.10 in NW 8.1 mph 4.9 mph 80% 0 in 26.00 W/m2
17:05 29 °F 23.6 °F 30.11 in North 12.7 mph 6.4 mph 80% 0 in 23.00 W/m2
17:10 28.9 °F 23.2 °F 30.11 in NW 11.5 mph 7.6 mph 79% 0 in 19.00 W/m2
17:15 28.8 °F 22.8 °F 30.11 in NNW 11.5 mph 8.2 mph 78% 0 in 12.00 W/m2
17:20 28.8 °F 22.8 °F 30.11 in WNW 11.5 mph 8 mph 78% 0 in 7.00 W/m2
17:25 28.7 °F 23 °F 30.11 in NNW 10.4 mph 7.3 mph 79% 0 in 0.00 W/m2
17:30 28.7 °F 23 °F 30.11 in NNW 18.4 mph 10.8 mph 79% 0 in 0.00 W/m2
17:35 28.5 °F 22.2 °F 30.11 in NNW 13.8 mph 9.3 mph 77% 0 in 0.00 W/m2
17:40 28.4 °F 22.1 °F 30.12 in WNW 10.4 mph 6.7 mph 77% 0 in 0.00 W/m2
17:45 28.3 °F 22 °F 30.12 in NNW 15 mph 7.8 mph 77% 0 in 0.00 W/m2
17:50 28.3 °F 22 °F 30.12 in WNW 13.8 mph 9.3 mph 77% 0 in 0.00 W/m2
17:55 28.2 °F 21.6 °F 30.12 in NW 9.2 mph 5.2 mph 76% 0 in 0.00 W/m2
18:00 28.1 °F 21.8 °F 30.12 in WNW 16.1 mph 9.5 mph 77% 0 in 0.00 W/m2
18:05 28 °F 21.4 °F 30.12 in WNW 12.7 mph 8.5 mph 76% 0 in 0.00 W/m2
18:10 28 °F 21.1 °F 30.12 in NW 12.7 mph 7.5 mph 75% 0 in 0.00 W/m2
18:15 27.9 °F 21.3 °F 30.13 in NW 11.5 mph 7 mph 76% 0 in 0.00 W/m2
18:20 27.8 °F 20.9 °F 30.13 in NW 11.5 mph 7.4 mph 75% 0 in 0.00 W/m2
18:25 27.7 °F 20.8 °F 30.13 in North 11.5 mph 6.6 mph 75% 0 in 0.00 W/m2
18:30 27.6 °F 20.7 °F 30.13 in NW 11.5 mph 6.8 mph 75% 0 in 0.00 W/m2
18:35 27.6 °F 20.7 °F 30.14 in NNW 10.4 mph 5.8 mph 75% 0 in 0.00 W/m2
18:40 27.6 °F 20.4 °F 30.14 in WNW 17.3 mph 13.2 mph 74% 0 in 0.00 W/m2
18:45 27.4 °F 20.2 °F 30.14 in NW 12.7 mph 8.9 mph 74% 0 in 0.00 W/m2
18:50 27.3 °F 20.4 °F 30.14 in NW 11.5 mph 8.8 mph 75% 0 in 0.00 W/m2
18:55 27.1 °F 20.5 °F 30.14 in NW 13.8 mph 8.8 mph 76% 0 in 0.00 W/m2
19:00 27 °F 20.1 °F 30.14 in NW 16.1 mph 9.6 mph 75% 0 in 0.00 W/m2
19:05 27 °F 20.1 °F 30.14 in NNW 15 mph 8.7 mph 75% 0 in 0.00 W/m2
19:10 26.9 °F 20 °F 30.14 in NW 16.1 mph 9.1 mph 75% 0 in 0.00 W/m2
19:15 26.8 °F 20.2 °F 30.14 in NNW 10.4 mph 6.6 mph 76% 0 in 0.00 W/m2
19:20 26.7 °F 19.8 °F 30.14 in NW 12.7 mph 8.2 mph 75% 0 in 0.00 W/m2
19:25 26.6 °F 19.7 °F 30.15 in North 10.4 mph 5.6 mph 75% 0 in 0.00 W/m2
19:30 26.6 °F 19.7 °F 30.15 in NNW 11.5 mph 7.2 mph 75% 0 in 0.00 W/m2
19:35 26.5 °F 20 °F 30.15 in NNW 13.8 mph 6.8 mph 76% 0 in 0.00 W/m2
19:40 26.4 °F 19.9 °F 30.15 in North 15 mph 10.9 mph 76% 0 in 0.00 W/m2
19:45 26.2 °F 19 °F 30.15 in NNW 12.7 mph 7.8 mph 74% 0 in 0.00 W/m2
19:50 26.1 °F 18.9 °F 30.16 in NNW 17.3 mph 9.9 mph 74% 0 in 0.00 W/m2
19:55 26 °F 18.5 °F 30.16 in NNW 12.7 mph 9 mph 73% 0 in 0.00 W/m2
20:00 25.9 °F 18.4 °F 30.16 in NNW 19.6 mph 13.1 mph 73% 0 in 0.00 W/m2
20:05 25.8 °F 18.3 °F 30.16 in NNW 15 mph 10.4 mph 73% 0 in 0.00 W/m2
20:10 25.8 °F 18.7 °F 30.16 in NNW 11.5 mph 9.1 mph 74% 0 in 0.00 W/m2
20:15 25.7 °F 18.2 °F 30.16 in NNW 11.5 mph 8 mph 73% 0 in 0.00 W/m2
20:20 25.7 °F 18.6 °F 30.16 in NNW 10.4 mph 6.1 mph 74% 0 in 0.00 W/m2
20:25 25.6 °F 18.5 °F 30.16 in NNW 12.7 mph 8.8 mph 74% 0 in 0.00 W/m2
20:30 25.7 °F 18.9 °F 30.16 in NNW 16.1 mph 6.4 mph 75% 0 in 0.00 W/m2
Bourbonnais, Illinois, USA
Compliments of Weather Underground - 2 mb